KLGC/LGC METAR and TAF weather

Enter ICAO airport designator
Station Type Date Time Source
KLGC METAR 2021/07/24 20:35 UTC NOAA

KLGC 242035Z AUTO 00000KT 10SM SCT046 SCT050 BKN080 33/20 A3004 RMK AO2 T03270200


Station Type Date Time Source
KLGC Decoded METAR 2021/07/24 20:35 UTC NOAA

La Grange, Callaway Airport, GA, United States (KLGC) 33-00-32N 085-04-21W
Jul 24, 2021 - 04:35 PM EDT / 2021.07.24 2035 UTC
Wind: Calm:0
Visibility: 10 mile(s):0
Sky conditions: mostly cloudy
Temperature: 90.9 F (32.7 C)
Heat index: 94.8 F (34.9 C):1
Dew Point: 68.0 F (20.0 C)
Relative Humidity: 47%
Pressure (altimeter): 30.04 in. Hg (1017 hPa)
ob: KLGC 242035Z AUTO 00000KT 10SM SCT046 SCT050 BKN080 33/20 A3004 RMK AO2 T03270200
cycle: 20

Station Type Date Time Source
KLGC TAF UTC NOAA

Error!

Example: see airport list